sensor_id;sensor_type;location;lat;lon;timestamp;P1;durP1;ratioP1;P2;durP2;ratioP2
29422;SDS011;16399;51.686;8.684;2023-04-24T00:01:51;1.90;;;0.62;;
29422;SDS011;16399;51.686;8.684;2023-04-24T00:04:54;1.02;;;0.50;;
29422;SDS011;16399;51.686;8.684;2023-04-24T00:07:56;0.80;;;0.40;;
29422;SDS011;16399;51.686;8.684;2023-04-24T00:10:58;1.45;;;0.60;;
29422;SDS011;16399;51.686;8.684;2023-04-24T00:14:00;2.83;;;0.70;;
29422;SDS011;16399;51.686;8.684;2023-04-24T00:17:03;1.70;;;0.70;;
29422;SDS011;16399;51.686;8.684;2023-04-24T00:20:06;0.60;;;0.50;;
29422;SDS011;16399;51.686;8.684;2023-04-24T00:23:08;1.52;;;0.50;;
29422;SDS011;16399;51.686;8.684;2023-04-24T00:26:10;1.40;;;0.50;;
29422;SDS011;16399;51.686;8.684;2023-04-24T00:29:13;0.68;;;0.40;;
29422;SDS011;16399;51.686;8.684;2023-04-24T00:32:15;1.05;;;0.40;;
29422;SDS011;16399;51.686;8.684;2023-04-24T00:35:18;0.85;;;0.40;;
29422;SDS011;16399;51.686;8.684;2023-04-24T00:38:20;1.20;;;0.40;;
29422;SDS011;16399;51.686;8.684;2023-04-24T00:41:22;0.68;;;0.50;;
29422;SDS011;16399;51.686;8.684;2023-04-24T00:44:25;1.47;;;0.50;;
29422;SDS011;16399;51.686;8.684;2023-04-24T00:47:28;1.32;;;0.47;;
29422;SDS011;16399;51.686;8.684;2023-04-24T00:50:31;0.88;;;0.40;;
29422;SDS011;16399;51.686;8.684;2023-04-24T00:53:33;0.70;;;0.50;;
29422;SDS011;16399;51.686;8.684;2023-04-24T00:56:36;4.30;;;0.70;;
29422;SDS011;16399;51.686;8.684;2023-04-24T00:59:38;0.88;;;0.50;;
29422;SDS011;16399;51.686;8.684;2023-04-24T01:02:42;0.88;;;0.40;;
29422;SDS011;16399;51.686;8.684;2023-04-24T01:05:45;1.82;;;0.50;;
29422;SDS011;16399;51.686;8.684;2023-04-24T01:08:48;0.35;;;0.30;;
29422;SDS011;16399;51.686;8.684;2023-04-24T01:11:52;0.60;;;0.40;;
29422;SDS011;16399;51.686;8.684;2023-04-24T01:14:55;0.72;;;0.42;;
29422;SDS011;16399;51.686;8.684;2023-04-24T01:17:58;1.17;;;0.30;;
29422;SDS011;16399;51.686;8.684;2023-04-24T01:21:00;0.55;;;0.45;;
29422;SDS011;16399;51.686;8.684;2023-04-24T01:24:05;0.62;;;0.50;;
29422;SDS011;16399;51.686;8.684;2023-04-24T01:27:09;0.82;;;0.35;;
29422;SDS011;16399;51.686;8.684;2023-04-24T01:30:12;0.53;;;0.30;;
29422;SDS011;16399;51.686;8.684;2023-04-24T01:33:15;0.60;;;0.40;;
29422;SDS011;16399;51.686;8.684;2023-04-24T01:36:17;2.87;;;0.50;;
29422;SDS011;16399;51.686;8.684;2023-04-24T01:39:20;3.65;;;0.68;;
29422;SDS011;16399;51.686;8.684;2023-04-24T01:42:23;0.53;;;0.30;;
29422;SDS011;16399;51.686;8.684;2023-04-24T01:45:26;1.52;;;0.50;;
29422;SDS011;16399;51.686;8.684;2023-04-24T01:48:28;0.82;;;0.50;;
29422;SDS011;16399;51.686;8.684;2023-04-24T01:51:31;0.93;;;0.35;;
29422;SDS011;16399;51.686;8.684;2023-04-24T01:54:33;2.27;;;0.40;;
29422;SDS011;16399;51.686;8.684;2023-04-24T01:57:36;2.75;;;0.40;;
29422;SDS011;16399;51.686;8.684;2023-04-24T02:00:38;1.55;;;0.50;;
29422;SDS011;16399;51.686;8.684;2023-04-24T02:03:40;0.70;;;0.35;;
29422;SDS011;16399;51.686;8.684;2023-04-24T02:06:43;0.35;;;0.35;;
29422;SDS011;16399;51.686;8.684;2023-04-24T02:09:45;1.05;;;0.50;;
29422;SDS011;16399;51.686;8.684;2023-04-24T02:12:48;1.37;;;0.60;;
29422;SDS011;16399;51.686;8.684;2023-04-24T02:15:50;1.52;;;0.40;;
29422;SDS011;16399;51.686;8.684;2023-04-24T02:18:52;0.68;;;0.40;;
29422;SDS011;16399;51.686;8.684;2023-04-24T02:21:55;1.65;;;0.42;;
29422;SDS011;16399;51.686;8.684;2023-04-24T02:24:57;0.82;;;0.50;;
29422;SDS011;16399;51.686;8.684;2023-04-24T02:28:00;0.90;;;0.57;;
29422;SDS011;16399;51.686;8.684;2023-04-24T02:31:03;2.47;;;0.93;;
29422;SDS011;16399;51.686;8.684;2023-04-24T02:34:06;2.70;;;1.17;;
29422;SDS011;16399;51.686;8.684;2023-04-24T02:37:08;1.75;;;0.70;;
29422;SDS011;16399;51.686;8.684;2023-04-24T02:40:11;0.53;;;0.40;;
29422;SDS011;16399;51.686;8.684;2023-04-24T02:43:13;0.60;;;0.50;;
29422;SDS011;16399;51.686;8.684;2023-04-24T02:46:15;0.68;;;0.42;;
29422;SDS011;16399;51.686;8.684;2023-04-24T02:49:18;1.00;;;0.50;;
29422;SDS011;16399;51.686;8.684;2023-04-24T02:52:20;1.10;;;0.30;;
29422;SDS011;16399;51.686;8.684;2023-04-24T02:55:23;1.98;;;0.50;;
29422;SDS011;16399;51.686;8.684;2023-04-24T02:58:25;2.12;;;0.50;;
29422;SDS011;16399;51.686;8.684;2023-04-24T03:01:27;1.27;;;0.50;;
29422;SDS011;16399;51.686;8.684;2023-04-24T03:04:30;1.45;;;0.50;;
29422;SDS011;16399;51.686;8.684;2023-04-24T03:07:32;2.50;;;0.47;;
29422;SDS011;16399;51.686;8.684;2023-04-24T03:10:35;1.12;;;0.55;;
29422;SDS011;16399;51.686;8.684;2023-04-24T03:13:37;1.07;;;0.57;;
29422;SDS011;16399;51.686;8.684;2023-04-24T03:16:40;1.05;;;0.60;;
29422;SDS011;16399;51.686;8.684;2023-04-24T03:19:42;1.98;;;0.60;;
29422;SDS011;16399;51.686;8.684;2023-04-24T03:22:45;0.72;;;0.60;;
29422;SDS011;16399;51.686;8.684;2023-04-24T03:25:47;1.95;;;0.50;;
29422;SDS011;16399;51.686;8.684;2023-04-24T03:28:49;2.08;;;0.50;;
29422;SDS011;16399;51.686;8.684;2023-04-24T03:31:51;2.33;;;0.50;;
29422;SDS011;16399;51.686;8.684;2023-04-24T03:34:54;3.60;;;0.60;;
29422;SDS011;16399;51.686;8.684;2023-04-24T03:37:56;0.80;;;0.50;;
29422;SDS011;16399;51.686;8.684;2023-04-24T03:40:58;3.65;;;0.90;;
29422;SDS011;16399;51.686;8.684;2023-04-24T03:44:00;1.10;;;0.40;;
29422;SDS011;16399;51.686;8.684;2023-04-24T03:47:03;1.55;;;0.60;;
29422;SDS011;16399;51.686;8.684;2023-04-24T03:50:05;1.30;;;0.65;;
29422;SDS011;16399;51.686;8.684;2023-04-24T03:53:08;0.82;;;0.50;;
29422;SDS011;16399;51.686;8.684;2023-04-24T03:56:10;1.62;;;0.57;;
29422;SDS011;16399;51.686;8.684;2023-04-24T03:59:12;1.25;;;0.68;;
29422;SDS011;16399;51.686;8.684;2023-04-24T04:02:15;0.70;;;0.42;;
29422;SDS011;16399;51.686;8.684;2023-04-24T04:05:17;1.60;;;0.78;;
29422;SDS011;16399;51.686;8.684;2023-04-24T04:08:20;1.35;;;0.70;;
29422;SDS011;16399;51.686;8.684;2023-04-24T04:11:22;1.72;;;0.78;;
29422;SDS011;16399;51.686;8.684;2023-04-24T04:14:25;2.55;;;0.95;;
29422;SDS011;16399;51.686;8.684;2023-04-24T04:17:27;1.47;;;0.90;;
29422;SDS011;16399;51.686;8.684;2023-04-24T04:20:30;1.80;;;0.95;;
29422;SDS011;16399;51.686;8.684;2023-04-24T04:23:32;2.80;;;1.22;;
29422;SDS011;16399;51.686;8.684;2023-04-24T04:26:34;2.77;;;1.20;;
29422;SDS011;16399;51.686;8.684;2023-04-24T04:29:38;2.90;;;1.22;;
29422;SDS011;16399;51.686;8.684;2023-04-24T04:32:40;2.40;;;1.10;;
29422;SDS011;16399;51.686;8.684;2023-04-24T04:35:42;2.60;;;1.05;;
29422;SDS011;16399;51.686;8.684;2023-04-24T04:38:45;2.40;;;0.98;;
29422;SDS011;16399;51.686;8.684;2023-04-24T04:41:47;2.40;;;1.05;;
29422;SDS011;16399;51.686;8.684;2023-04-24T04:44:49;1.70;;;1.00;;
29422;SDS011;16399;51.686;8.684;2023-04-24T04:47:52;2.20;;;1.20;;
29422;SDS011;16399;51.686;8.684;2023-04-24T04:50:55;2.35;;;1.00;;
29422;SDS011;16399;51.686;8.684;2023-04-24T04:53:57;4.17;;;1.30;;
29422;SDS011;16399;51.686;8.684;2023-04-24T04:57:00;3.58;;;1.35;;
29422;SDS011;16399;51.686;8.684;2023-04-24T05:00:02;3.52;;;1.77;;
29422;SDS011;16399;51.686;8.684;2023-04-24T05:03:05;4.62;;;2.27;;
29422;SDS011;16399;51.686;8.684;2023-04-24T05:06:07;4.85;;;2.50;;
29422;SDS011;16399;51.686;8.684;2023-04-24T05:09:09;6.28;;;2.65;;
29422;SDS011;16399;51.686;8.684;2023-04-24T05:12:12;5.70;;;2.95;;
29422;SDS011;16399;51.686;8.684;2023-04-24T05:15:14;5.47;;;2.95;;
29422;SDS011;16399;51.686;8.684;2023-04-24T05:18:16;5.37;;;3.22;;
29422;SDS011;16399;51.686;8.684;2023-04-24T05:21:19;6.70;;;3.80;;
29422;SDS011;16399;51.686;8.684;2023-04-24T05:24:21;5.95;;;4.03;;
29422;SDS011;16399;51.686;8.684;2023-04-24T05:27:24;7.78;;;4.65;;
29422;SDS011;16399;51.686;8.684;2023-04-24T05:30:26;8.38;;;4.45;;
29422;SDS011;16399;51.686;8.684;2023-04-24T05:33:28;9.40;;;5.40;;
29422;SDS011;16399;51.686;8.684;2023-04-24T05:36:31;11.55;;;4.75;;
29422;SDS011;16399;51.686;8.684;2023-04-24T05:39:33;8.18;;;4.70;;
29422;SDS011;16399;51.686;8.684;2023-04-24T05:42:36;8.03;;;4.75;;
29422;SDS011;16399;51.686;8.684;2023-04-24T05:45:38;8.85;;;4.85;;
29422;SDS011;16399;51.686;8.684;2023-04-24T05:48:40;7.70;;;4.22;;
29422;SDS011;16399;51.686;8.684;2023-04-24T05:51:43;7.80;;;4.65;;
29422;SDS011;16399;51.686;8.684;2023-04-24T05:54:45;10.03;;;4.78;;
29422;SDS011;16399;51.686;8.684;2023-04-24T05:57:48;8.10;;;4.05;;
29422;SDS011;16399;51.686;8.684;2023-04-24T06:00:50;8.50;;;4.45;;
29422;SDS011;16399;51.686;8.684;2023-04-24T06:03:52;6.67;;;4.05;;
29422;SDS011;16399;51.686;8.684;2023-04-24T06:06:55;7.65;;;4.03;;
29422;SDS011;16399;51.686;8.684;2023-04-24T06:09:57;8.28;;;4.30;;
29422;SDS011;16399;51.686;8.684;2023-04-24T06:12:59;8.20;;;4.35;;
29422;SDS011;16399;51.686;8.684;2023-04-24T06:16:02;8.65;;;4.37;;
29422;SDS011;16399;51.686;8.684;2023-04-24T06:19:04;8.20;;;4.42;;
29422;SDS011;16399;51.686;8.684;2023-04-24T06:22:06;8.50;;;4.50;;
29422;SDS011;16399;51.686;8.684;2023-04-24T06:25:08;9.28;;;4.10;;
29422;SDS011;16399;51.686;8.684;2023-04-24T06:28:11;7.60;;;4.42;;
29422;SDS011;16399;51.686;8.684;2023-04-24T06:31:13;7.70;;;4.53;;
29422;SDS011;16399;51.686;8.684;2023-04-24T06:34:16;9.38;;;4.53;;
29422;SDS011;16399;51.686;8.684;2023-04-24T06:37:18;6.30;;;3.77;;
29422;SDS011;16399;51.686;8.684;2023-04-24T06:40:21;7.53;;;4.37;;
29422;SDS011;16399;51.686;8.684;2023-04-24T06:43:24;9.58;;;4.47;;
29422;SDS011;16399;51.686;8.684;2023-04-24T06:46:27;8.25;;;4.47;;
29422;SDS011;16399;51.686;8.684;2023-04-24T06:49:29;7.15;;;4.10;;
29422;SDS011;16399;51.686;8.684;2023-04-24T06:52:31;7.33;;;4.50;;
29422;SDS011;16399;51.686;8.684;2023-04-24T06:55:35;9.53;;;4.53;;
29422;SDS011;16399;51.686;8.684;2023-04-24T06:58:37;5.92;;;3.80;;
29422;SDS011;16399;51.686;8.684;2023-04-24T07:01:39;8.35;;;4.03;;
29422;SDS011;16399;51.686;8.684;2023-04-24T07:04:42;6.42;;;3.10;;
29422;SDS011;16399;51.686;8.684;2023-04-24T07:07:44;6.10;;;3.80;;
29422;SDS011;16399;51.686;8.684;2023-04-24T07:10:48;6.72;;;3.25;;
29422;SDS011;16399;51.686;8.684;2023-04-24T07:13:52;5.75;;;3.37;;
29422;SDS011;16399;51.686;8.684;2023-04-24T07:16:54;6.00;;;3.50;;
29422;SDS011;16399;51.686;8.684;2023-04-24T07:19:57;7.67;;;2.98;;
29422;SDS011;16399;51.686;8.684;2023-04-24T07:22:59;5.22;;;2.90;;
29422;SDS011;16399;51.686;8.684;2023-04-24T07:26:02;5.80;;;3.05;;
29422;SDS011;16399;51.686;8.684;2023-04-24T07:29:04;6.05;;;2.75;;
29422;SDS011;16399;51.686;8.684;2023-04-24T07:32:07;9.73;;;3.55;;
29422;SDS011;16399;51.686;8.684;2023-04-24T07:35:09;5.58;;;3.10;;
29422;SDS011;16399;51.686;8.684;2023-04-24T07:38:12;5.10;;;3.17;;
29422;SDS011;16399;51.686;8.684;2023-04-24T07:41:14;5.92;;;3.00;;
29422;SDS011;16399;51.686;8.684;2023-04-24T07:44:16;5.62;;;2.70;;
29422;SDS011;16399;51.686;8.684;2023-04-24T07:47:19;5.15;;;3.02;;
29422;SDS011;16399;51.686;8.684;2023-04-24T07:50:21;6.80;;;2.95;;
29422;SDS011;16399;51.686;8.684;2023-04-24T07:53:23;4.72;;;2.45;;
29422;SDS011;16399;51.686;8.684;2023-04-24T07:56:26;5.17;;;2.60;;
29422;SDS011;16399;51.686;8.684;2023-04-24T07:59:30;5.27;;;2.23;;
29422;SDS011;16399;51.686;8.684;2023-04-24T08:02:32;5.47;;;2.30;;
29422;SDS011;16399;51.686;8.684;2023-04-24T08:05:34;3.90;;;2.22;;
29422;SDS011;16399;51.686;8.684;2023-04-24T08:08:37;3.90;;;2.10;;
29422;SDS011;16399;51.686;8.684;2023-04-24T08:11:39;4.40;;;2.10;;
29422;SDS011;16399;51.686;8.684;2023-04-24T08:14:41;3.65;;;2.15;;
29422;SDS011;16399;51.686;8.684;2023-04-24T08:17:44;4.00;;;2.00;;
29422;SDS011;16399;51.686;8.684;2023-04-24T08:20:46;4.55;;;2.12;;
29422;SDS011;16399;51.686;8.684;2023-04-24T08:23:48;3.98;;;2.02;;
29422;SDS011;16399;51.686;8.684;2023-04-24T08:26:51;6.25;;;2.20;;
29422;SDS011;16399;51.686;8.684;2023-04-24T08:29:54;4.22;;;2.47;;
29422;SDS011;16399;51.686;8.684;2023-04-24T08:32:56;4.62;;;2.40;;
29422;SDS011;16399;51.686;8.684;2023-04-24T08:35:59;4.95;;;2.20;;
29422;SDS011;16399;51.686;8.684;2023-04-24T08:39:03;4.33;;;2.25;;
29422;SDS011;16399;51.686;8.684;2023-04-24T08:42:06;4.08;;;2.52;;
29422;SDS011;16399;51.686;8.684;2023-04-24T08:45:10;5.05;;;2.30;;
29422;SDS011;16399;51.686;8.684;2023-04-24T08:48:13;4.30;;;2.30;;
29422;SDS011;16399;51.686;8.684;2023-04-24T08:51:16;3.95;;;2.15;;
29422;SDS011;16399;51.686;8.684;2023-04-24T08:54:19;3.85;;;2.08;;
29422;SDS011;16399;51.686;8.684;2023-04-24T08:57:21;3.92;;;1.95;;
29422;SDS011;16399;51.686;8.684;2023-04-24T09:00:24;3.45;;;1.67;;
29422;SDS011;16399;51.686;8.684;2023-04-24T09:03:27;2.85;;;1.62;;
29422;SDS011;16399;51.686;8.684;2023-04-24T09:06:30;2.80;;;1.47;;
29422;SDS011;16399;51.686;8.684;2023-04-24T09:09:33;3.30;;;1.80;;
29422;SDS011;16399;51.686;8.684;2023-04-24T09:12:37;3.12;;;1.37;;
29422;SDS011;16399;51.686;8.684;2023-04-24T09:15:39;2.80;;;1.47;;
29422;SDS011;16399;51.686;8.684;2023-04-24T09:18:42;4.00;;;1.60;;
29422;SDS011;16399;51.686;8.684;2023-04-24T09:21:45;7.83;;;2.27;;
29422;SDS011;16399;51.686;8.684;2023-04-24T09:24:48;2.70;;;1.40;;
29422;SDS011;16399;51.686;8.684;2023-04-24T09:27:53;2.27;;;1.25;;
29422;SDS011;16399;51.686;8.684;2023-04-24T09:31:08;2.87;;;1.35;;
29422;SDS011;16399;51.686;8.684;2023-04-24T09:34:14;4.30;;;1.17;;
29422;SDS011;16399;51.686;8.684;2023-04-24T09:37:27;2.55;;;1.17;;
29422;SDS011;16399;51.686;8.684;2023-04-24T09:40:30;3.25;;;1.15;;
29422;SDS011;16399;51.686;8.684;2023-04-24T09:43:36;3.10;;;1.12;;
29422;SDS011;16399;51.686;8.684;2023-04-24T09:46:38;1.27;;;0.65;;
29422;SDS011;16399;51.686;8.684;2023-04-24T09:49:40;1.82;;;0.65;;
29422;SDS011;16399;51.686;8.684;2023-04-24T09:52:44;1.40;;;0.60;;
29422;SDS011;16399;51.686;8.684;2023-04-24T09:58:50;0.72;;;0.50;;
29422;SDS011;16399;51.686;8.684;2023-04-24T10:01:53;2.30;;;0.60;;
29422;SDS011;16399;51.686;8.684;2023-04-24T10:04:56;1.22;;;0.70;;
29422;SDS011;16399;51.686;8.684;2023-04-24T10:08:04;0.78;;;0.57;;
29422;SDS011;16399;51.686;8.684;2023-04-24T10:11:07;1.72;;;0.50;;
29422;SDS011;16399;51.686;8.684;2023-04-24T10:14:16;1.80;;;0.67;;
29422;SDS011;16399;51.686;8.684;2023-04-24T10:17:19;2.02;;;0.93;;
29422;SDS011;16399;51.686;8.684;2023-04-24T10:20:22;2.87;;;0.50;;
29422;SDS011;16399;51.686;8.684;2023-04-24T10:23:26;0.60;;;0.30;;
29422;SDS011;16399;51.686;8.684;2023-04-24T10:26:30;0.62;;;0.40;;
29422;SDS011;16399;51.686;8.684;2023-04-24T10:29:32;0.62;;;0.30;;
29422;SDS011;16399;51.686;8.684;2023-04-24T10:32:37;0.35;;;0.30;;
29422;SDS011;16399;51.686;8.684;2023-04-24T10:35:40;1.90;;;0.10;;
29422;SDS011;16399;51.686;8.684;2023-04-24T10:38:45;0.20;;;0.20;;
29422;SDS011;16399;51.686;8.684;2023-04-24T10:41:49;0.50;;;0.30;;
29422;SDS011;16399;51.686;8.684;2023-04-24T10:44:52;0.20;;;0.20;;
29422;SDS011;16399;51.686;8.684;2023-04-24T10:51:06;0.78;;;0.30;;
29422;SDS011;16399;51.686;8.684;2023-04-24T10:54:27;0.10;;;0.10;;
29422;SDS011;16399;51.686;8.684;2023-04-24T11:01:05;0.50;;;0.20;;
29422;SDS011;16399;51.686;8.684;2023-04-24T11:04:07;0.60;;;0.20;;
29422;SDS011;16399;51.686;8.684;2023-04-24T11:07:11;0.67;;;0.27;;
29422;SDS011;16399;51.686;8.684;2023-04-24T11:10:24;0.70;;;0.30;;
29422;SDS011;16399;51.686;8.684;2023-04-24T11:14:00;0.20;;;0.20;;
29422;SDS011;16399;51.686;8.684;2023-04-24T11:16:52;1.27;;;0.33;;
29422;SDS011;16399;51.686;8.684;2023-04-24T11:20:06;0.78;;;0.50;;
29422;SDS011;16399;51.686;8.684;2023-04-24T11:23:05;0.65;;;0.40;;
29422;SDS011;16399;51.686;8.684;2023-04-24T11:26:12;0.75;;;0.50;;
29422;SDS011;16399;51.686;8.684;2023-04-24T11:29:16;1.25;;;0.53;;
29422;SDS011;16399;51.686;8.684;2023-04-24T11:35:40;2.00;;;0.98;;
29422;SDS011;16399;51.686;8.684;2023-04-24T11:38:43;2.65;;;1.02;;
29422;SDS011;16399;51.686;8.684;2023-04-24T11:41:45;1.37;;;0.88;;
29422;SDS011;16399;51.686;8.684;2023-04-24T11:44:49;1.95;;;1.15;;
29422;SDS011;16399;51.686;8.684;2023-04-24T11:47:51;2.08;;;1.12;;
29422;SDS011;16399;51.686;8.684;2023-04-24T11:50:54;1.05;;;0.80;;
29422;SDS011;16399;51.686;8.684;2023-04-24T11:53:57;1.32;;;0.80;;
29422;SDS011;16399;51.686;8.684;2023-04-24T11:57:03;2.70;;;0.90;;
29422;SDS011;16399;51.686;8.684;2023-04-24T12:00:07;1.75;;;0.90;;
29422;SDS011;16399;51.686;8.684;2023-04-24T12:03:11;3.00;;;1.17;;
29422;SDS011;16399;51.686;8.684;2023-04-24T12:06:13;2.55;;;1.27;;
29422;SDS011;16399;51.686;8.684;2023-04-24T12:09:16;3.08;;;1.60;;
29422;SDS011;16399;51.686;8.684;2023-04-24T12:12:18;5.87;;;1.85;;
29422;SDS011;16399;51.686;8.684;2023-04-24T12:15:20;3.37;;;1.27;;
29422;SDS011;16399;51.686;8.684;2023-04-24T12:18:23;3.85;;;1.40;;
29422;SDS011;16399;51.686;8.684;2023-04-24T12:21:26;4.30;;;1.52;;
29422;SDS011;16399;51.686;8.684;2023-04-24T12:24:30;3.23;;;1.30;;
29422;SDS011;16399;51.686;8.684;2023-04-24T12:27:32;4.55;;;1.42;;
29422;SDS011;16399;51.686;8.684;2023-04-24T12:30:40;3.30;;;1.52;;
29422;SDS011;16399;51.686;8.684;2023-04-24T12:33:46;4.15;;;1.80;;
29422;SDS011;16399;51.686;8.684;2023-04-24T12:36:48;5.58;;;2.05;;
29422;SDS011;16399;51.686;8.684;2023-04-24T12:40:00;4.85;;;2.10;;
29422;SDS011;16399;51.686;8.684;2023-04-24T12:43:18;4.62;;;2.22;;
29422;SDS011;16399;51.686;8.684;2023-04-24T12:46:21;3.77;;;2.10;;
29422;SDS011;16399;51.686;8.684;2023-04-24T12:49:23;4.83;;;2.42;;
29422;SDS011;16399;51.686;8.684;2023-04-24T12:52:25;6.15;;;2.72;;
29422;SDS011;16399;51.686;8.684;2023-04-24T12:55:29;5.85;;;2.70;;
29422;SDS011;16399;51.686;8.684;2023-04-24T12:58:31;7.15;;;3.20;;
29422;SDS011;16399;51.686;8.684;2023-04-24T13:01:33;7.15;;;2.90;;
29422;SDS011;16399;51.686;8.684;2023-04-24T13:04:36;8.65;;;2.83;;
29422;SDS011;16399;51.686;8.684;2023-04-24T13:07:38;6.17;;;2.72;;
29422;SDS011;16399;51.686;8.684;2023-04-24T13:10:41;7.58;;;3.05;;
29422;SDS011;16399;51.686;8.684;2023-04-24T13:13:43;6.47;;;2.98;;
29422;SDS011;16399;51.686;8.684;2023-04-24T13:16:45;5.55;;;3.12;;
29422;SDS011;16399;51.686;8.684;2023-04-24T13:19:48;7.45;;;3.50;;
29422;SDS011;16399;51.686;8.684;2023-04-24T13:22:52;7.53;;;3.22;;
29422;SDS011;16399;51.686;8.684;2023-04-24T13:25:54;9.73;;;4.03;;
29422;SDS011;16399;51.686;8.684;2023-04-24T13:28:58;8.38;;;3.25;;
29422;SDS011;16399;51.686;8.684;2023-04-24T13:32:01;7.53;;;3.33;;
29422;SDS011;16399;51.686;8.684;2023-04-24T13:35:03;8.10;;;4.62;;
29422;SDS011;16399;51.686;8.684;2023-04-24T13:38:07;9.37;;;3.77;;
29422;SDS011;16399;51.686;8.684;2023-04-24T13:41:10;9.10;;;4.17;;
29422;SDS011;16399;51.686;8.684;2023-04-24T13:44:12;7.30;;;4.20;;
29422;SDS011;16399;51.686;8.684;2023-04-24T13:47:15;12.40;;;4.58;;
29422;SDS011;16399;51.686;8.684;2023-04-24T13:50:17;13.18;;;5.55;;
29422;SDS011;16399;51.686;8.684;2023-04-24T13:53:20;11.38;;;5.05;;
29422;SDS011;16399;51.686;8.684;2023-04-24T13:56:23;9.98;;;5.15;;
29422;SDS011;16399;51.686;8.684;2023-04-24T13:59:26;12.85;;;6.22;;
29422;SDS011;16399;51.686;8.684;2023-04-24T14:02:28;12.98;;;5.72;;
29422;SDS011;16399;51.686;8.684;2023-04-24T14:05:30;13.45;;;5.83;;
29422;SDS011;16399;51.686;8.684;2023-04-24T14:08:33;15.72;;;6.30;;
29422;SDS011;16399;51.686;8.684;2023-04-24T14:11:35;14.63;;;6.53;;
29422;SDS011;16399;51.686;8.684;2023-04-24T14:14:38;15.55;;;6.42;;
29422;SDS011;16399;51.686;8.684;2023-04-24T14:17:40;16.60;;;6.47;;
29422;SDS011;16399;51.686;8.684;2023-04-24T14:20:42;14.10;;;6.67;;
29422;SDS011;16399;51.686;8.684;2023-04-24T14:23:45;16.07;;;6.30;;
29422;SDS011;16399;51.686;8.684;2023-04-24T14:26:47;13.35;;;7.20;;
29422;SDS011;16399;51.686;8.684;2023-04-24T14:29:49;12.80;;;6.30;;
29422;SDS011;16399;51.686;8.684;2023-04-24T14:32:52;12.10;;;5.40;;
29422;SDS011;16399;51.686;8.684;2023-04-24T14:35:54;11.55;;;5.87;;
29422;SDS011;16399;51.686;8.684;2023-04-24T14:38:56;7.97;;;4.62;;
29422;SDS011;16399;51.686;8.684;2023-04-24T14:41:58;8.38;;;4.40;;
29422;SDS011;16399;51.686;8.684;2023-04-24T14:45:02;7.47;;;3.85;;
29422;SDS011;16399;51.686;8.684;2023-04-24T14:48:04;10.48;;;4.08;;
29422;SDS011;16399;51.686;8.684;2023-04-24T14:51:08;10.60;;;4.05;;
29422;SDS011;16399;51.686;8.684;2023-04-24T14:54:10;11.20;;;3.50;;
29422;SDS011;16399;51.686;8.684;2023-04-24T14:57:13;8.65;;;4.25;;
29422;SDS011;16399;51.686;8.684;2023-04-24T15:00:17;6.17;;;3.05;;
29422;SDS011;16399;51.686;8.684;2023-04-24T15:03:20;6.90;;;3.05;;
29422;SDS011;16399;51.686;8.684;2023-04-24T15:06:23;6.50;;;2.58;;
29422;SDS011;16399;51.686;8.684;2023-04-24T15:09:26;7.03;;;3.02;;
29422;SDS011;16399;51.686;8.684;2023-04-24T15:12:28;7.40;;;3.25;;
29422;SDS011;16399;51.686;8.684;2023-04-24T15:15:30;11.90;;;2.83;;
29422;SDS011;16399;51.686;8.684;2023-04-24T15:18:33;9.28;;;3.00;;
29422;SDS011;16399;51.686;8.684;2023-04-24T15:21:35;7.60;;;3.52;;
29422;SDS011;16399;51.686;8.684;2023-04-24T15:24:38;9.00;;;2.60;;
29422;SDS011;16399;51.686;8.684;2023-04-24T15:27:41;5.35;;;2.50;;
29422;SDS011;16399;51.686;8.684;2023-04-24T15:30:47;8.28;;;2.80;;
29422;SDS011;16399;51.686;8.684;2023-04-24T15:33:50;5.95;;;2.35;;
29422;SDS011;16399;51.686;8.684;2023-04-24T15:36:52;5.83;;;2.70;;
29422;SDS011;16399;51.686;8.684;2023-04-24T15:39:55;7.28;;;2.85;;
29422;SDS011;16399;51.686;8.684;2023-04-24T15:42:57;6.80;;;2.70;;
29422;SDS011;16399;51.686;8.684;2023-04-24T15:46:01;7.80;;;2.70;;
29422;SDS011;16399;51.686;8.684;2023-04-24T15:49:03;8.23;;;3.40;;
29422;SDS011;16399;51.686;8.684;2023-04-24T15:52:05;6.05;;;3.12;;
29422;SDS011;16399;51.686;8.684;2023-04-24T15:55:09;6.73;;;2.90;;
29422;SDS011;16399;51.686;8.684;2023-04-24T15:58:12;6.83;;;3.40;;
29422;SDS011;16399;51.686;8.684;2023-04-24T16:01:14;9.98;;;3.92;;
29422;SDS011;16399;51.686;8.684;2023-04-24T16:04:16;7.30;;;3.37;;
29422;SDS011;16399;51.686;8.684;2023-04-24T16:07:19;9.75;;;3.92;;
29422;SDS011;16399;51.686;8.684;2023-04-24T16:10:21;5.62;;;3.87;;
29422;SDS011;16399;51.686;8.684;2023-04-24T16:13:23;7.17;;;3.25;;
29422;SDS011;16399;51.686;8.684;2023-04-24T16:16:26;6.50;;;2.90;;
29422;SDS011;16399;51.686;8.684;2023-04-24T16:19:28;5.00;;;2.95;;
29422;SDS011;16399;51.686;8.684;2023-04-24T16:22:31;8.73;;;2.98;;
29422;SDS011;16399;51.686;8.684;2023-04-24T16:25:33;7.37;;;3.35;;
29422;SDS011;16399;51.686;8.684;2023-04-24T16:28:36;5.25;;;3.12;;
29422;SDS011;16399;51.686;8.684;2023-04-24T16:31:39;5.65;;;2.87;;
29422;SDS011;16399;51.686;8.684;2023-04-24T16:34:41;7.15;;;3.02;;
29422;SDS011;16399;51.686;8.684;2023-04-24T16:37:44;6.05;;;2.90;;
29422;SDS011;16399;51.686;8.684;2023-04-24T16:40:46;5.25;;;3.12;;
29422;SDS011;16399;51.686;8.684;2023-04-24T16:43:49;7.60;;;3.60;;
29422;SDS011;16399;51.686;8.684;2023-04-24T16:46:51;5.97;;;3.30;;
29422;SDS011;16399;51.686;8.684;2023-04-24T16:49:53;6.72;;;3.80;;
29422;SDS011;16399;51.686;8.684;2023-04-24T16:52:56;9.58;;;4.75;;
29422;SDS011;16399;51.686;8.684;2023-04-24T16:55:58;9.70;;;3.30;;
29422;SDS011;16399;51.686;8.684;2023-04-24T16:59:00;6.17;;;3.58;;
29422;SDS011;16399;51.686;8.684;2023-04-24T17:02:03;6.62;;;3.45;;
29422;SDS011;16399;51.686;8.684;2023-04-24T17:05:05;5.28;;;3.42;;
29422;SDS011;16399;51.686;8.684;2023-04-24T17:08:08;5.92;;;3.33;;
29422;SDS011;16399;51.686;8.684;2023-04-24T17:11:10;7.40;;;3.52;;
29422;SDS011;16399;51.686;8.684;2023-04-24T17:14:12;7.85;;;3.45;;
29422;SDS011;16399;51.686;8.684;2023-04-24T17:17:14;9.40;;;3.35;;
29422;SDS011;16399;51.686;8.684;2023-04-24T17:20:19;7.42;;;3.22;;
29422;SDS011;16399;51.686;8.684;2023-04-24T17:23:21;6.17;;;3.15;;
29422;SDS011;16399;51.686;8.684;2023-04-24T17:26:24;6.92;;;3.42;;
29422;SDS011;16399;51.686;8.684;2023-04-24T17:29:27;6.97;;;3.65;;
29422;SDS011;16399;51.686;8.684;2023-04-24T17:32:29;6.72;;;3.42;;
29422;SDS011;16399;51.686;8.684;2023-04-24T17:35:31;6.53;;;3.47;;
29422;SDS011;16399;51.686;8.684;2023-04-24T17:38:33;7.03;;;2.85;;
29422;SDS011;16399;51.686;8.684;2023-04-24T17:41:36;6.28;;;2.40;;
29422;SDS011;16399;51.686;8.684;2023-04-24T17:44:38;9.03;;;2.85;;
29422;SDS011;16399;51.686;8.684;2023-04-24T17:47:40;4.08;;;1.92;;
29422;SDS011;16399;51.686;8.684;2023-04-24T17:50:43;7.15;;;1.87;;
29422;SDS011;16399;51.686;8.684;2023-04-24T17:53:46;3.45;;;1.57;;
29422;SDS011;16399;51.686;8.684;2023-04-24T17:56:48;5.87;;;1.82;;
29422;SDS011;16399;51.686;8.684;2023-04-24T17:59:52;4.90;;;1.93;;
29422;SDS011;16399;51.686;8.684;2023-04-24T18:02:54;4.55;;;2.00;;
29422;SDS011;16399;51.686;8.684;2023-04-24T18:06:03;4.60;;;1.80;;
29422;SDS011;16399;51.686;8.684;2023-04-24T18:09:06;6.50;;;2.35;;
29422;SDS011;16399;51.686;8.684;2023-04-24T18:12:08;6.17;;;2.10;;
29422;SDS011;16399;51.686;8.684;2023-04-24T18:15:11;5.17;;;2.40;;
29422;SDS011;16399;51.686;8.684;2023-04-24T18:18:13;4.33;;;2.08;;
29422;SDS011;16399;51.686;8.684;2023-04-24T18:21:17;4.78;;;2.10;;
29422;SDS011;16399;51.686;8.684;2023-04-24T18:24:19;4.58;;;2.40;;
29422;SDS011;16399;51.686;8.684;2023-04-24T18:27:22;5.67;;;2.52;;
29422;SDS011;16399;51.686;8.684;2023-04-24T18:30:27;4.50;;;2.58;;
29422;SDS011;16399;51.686;8.684;2023-04-24T18:33:31;6.03;;;2.70;;
29422;SDS011;16399;51.686;8.684;2023-04-24T18:36:33;4.92;;;2.17;;